Time;durP1;ratioP1;P1;durP2;ratioP2;P2;SDS_P1;SDS_P2;PMS_P1;PMS_P2;Temp;Humidity;BMP_temperature;BMP_pressure;BME280_temperature;BME280_humidity;BME280_pressure;Samples;Min_cycle;Max_cycle;Signal;HPM_P1;HPM_P2
2023/12/26 00:02:12;;;;;;;14.23;4.93;;;10.00;56.40;;;;;;5102165;27;20207;-86
2023/12/26 00:04:38;;;;;;;11.80;4.20;;;10.00;56.40;;;;;;5101578;27;20944;-86
2023/12/26 00:07:04;;;;;;;16.50;5.03;;;10.00;56.30;;;;;;5107465;28;20178;-85
2023/12/26 00:09:29;;;;;;;14.30;5.10;;;10.00;56.30;;;;;;5088347;28;20275;-86
2023/12/26 00:11:55;;;;;;;18.23;4.97;;;10.00;56.30;;;;;;5093144;28;20231;-86
2023/12/26 00:14:21;;;;;;;15.60;4.70;;;10.00;56.70;;;;;;5094532;28;20172;-86
2023/12/26 00:16:46;;;;;;;14.33;4.60;;;10.00;56.10;;;;;;5109229;28;20187;-87
2023/12/26 00:19:12;;;;;;;11.50;4.50;;;10.10;56.10;;;;;;5110005;28;20210;-86
2023/12/26 00:21:39;;;;;;;13.47;4.77;;;10.00;56.00;;;;;;5085772;28;20678;-87
2023/12/26 00:24:05;;;;;;;12.93;4.67;;;10.10;56.00;;;;;;5108193;28;20183;-87
2023/12/26 00:26:31;;;;;;;18.33;5.30;;;10.10;56.00;;;;;;5086560;28;20176;-86
2023/12/26 00:28:56;;;;;;;17.03;5.30;;;10.10;56.00;;;;;;5089006;28;20183;-87
2023/12/26 00:31:22;;;;;;;9.47;3.33;;;10.10;56.00;;;;;;5092203;28;20179;-87
2023/12/26 00:33:53;;;;;;;13.37;4.37;;;10.10;56.00;;;;;;5104408;28;20645;-87
2023/12/26 00:36:19;;;;;;;16.60;4.20;;;10.30;56.30;;;;;;5093447;28;20183;-87
2023/12/26 00:38:45;;;;;;;12.00;4.47;;;10.20;56.20;;;;;;5108067;28;20260;-87
2023/12/26 00:41:13;;;;;;;17.33;4.67;;;10.20;56.10;;;;;;5095496;28;20691;-87
2023/12/26 00:43:38;;;;;;;14.60;4.60;;;10.10;56.20;;;;;;5094499;28;20216;-87
2023/12/26 00:46:04;;;;;;;9.83;4.40;;;10.00;56.10;;;;;;5091610;28;20180;-86
2023/12/26 00:48:30;;;;;;;15.60;4.07;;;10.00;56.20;;;;;;5094746;28;20196;-87
2023/12/26 00:50:55;;;;;;;16.07;4.37;;;10.00;56.30;;;;;;5107654;28;20184;-86
2023/12/26 00:53:22;;;;;;;14.53;4.30;;;10.00;56.20;;;;;;5113180;28;20175;-87
2023/12/26 00:55:47;;;;;;;12.47;4.23;;;9.90;56.90;;;;;;5111674;28;20176;-87
2023/12/26 00:58:13;;;;;;;15.03;4.80;;;9.90;56.90;;;;;;5093618;28;20246;-87
2023/12/26 01:00:39;;;;;;;11.93;4.20;;;9.90;56.90;;;;;;5112402;28;20217;-85
2023/12/26 01:03:04;;;;;;;13.87;4.07;;;9.90;56.90;;;;;;5107078;27;20217;-87
2023/12/26 01:05:30;;;;;;;14.27;4.63;;;10.10;56.00;;;;;;5098660;28;20212;-86
2023/12/26 01:07:57;;;;;;;14.70;4.87;;;10.00;55.80;;;;;;5092902;28;20661;-86
2023/12/26 01:10:22;;;;;;;13.47;4.13;;;10.00;55.80;;;;;;5092713;28;20182;-86
2023/12/26 01:12:48;;;;;;;10.40;3.93;;;9.90;56.50;;;;;;5107205;28;20235;-87
2023/12/26 01:15:14;;;;;;;13.60;4.17;;;10.00;55.90;;;;;;5091444;28;20181;-86
2023/12/26 01:17:42;;;;;;;12.87;4.03;;;10.10;55.80;;;;;;5087200;28;20519;-87
2023/12/26 01:20:09;;;;;;;12.10;4.20;;;10.10;55.60;;;;;;5095600;28;20233;-86
2023/12/26 01:22:34;;;;;;;14.27;5.00;;;10.10;55.80;;;;;;5092741;28;20207;-89
2023/12/26 01:25:00;;;;;;;15.67;4.03;;;10.20;56.00;;;;;;5101410;27;20184;-86
2023/12/26 01:27:26;;;;;;;10.77;4.20;;;10.30;55.80;;;;;;5082496;28;20697;-88
2023/12/26 01:29:51;;;;;;;12.90;4.20;;;10.20;55.80;;;;;;5104119;28;20599;-86
2023/12/26 01:32:17;;;;;;;15.27;4.00;;;10.10;55.80;;;;;;5087811;28;20179;-87
2023/12/26 01:34:43;;;;;;;18.07;4.83;;;10.20;55.90;;;;;;5108915;27;20206;-89
2023/12/26 01:37:09;;;;;;;8.93;4.00;;;10.20;56.10;;;;;;5099395;28;20260;-86
2023/12/26 01:39:34;;;;;;;15.53;5.03;;;10.20;56.10;;;;;;5093050;28;20848;-88
2023/12/26 01:42:00;;;;;;;10.43;3.97;;;10.30;56.40;;;;;;5106289;28;20207;-89
2023/12/26 01:44:26;;;;;;;12.87;4.97;;;10.30;56.50;;;;;;5088510;28;20183;-87
2023/12/26 01:46:51;;;;;;;11.73;4.63;;;10.30;56.60;;;;;;5092001;28;20267;-87
2023/12/26 01:49:18;;;;;;;12.20;4.70;;;10.30;56.50;;;;;;5090295;28;20184;-88
2023/12/26 01:51:45;;;;;;;12.53;4.17;;;10.20;56.70;;;;;;5100463;28;20720;-88
2023/12/26 01:54:11;;;;;;;13.70;4.80;;;10.20;56.90;;;;;;5082327;28;20187;-87
2023/12/26 01:56:37;;;;;;;13.03;5.13;;;10.20;57.10;;;;;;5095258;28;20547;-87
2023/12/26 01:59:03;;;;;;;11.53;4.50;;;10.30;57.20;;;;;;5093352;28;20180;-88
2023/12/26 02:01:30;;;;;;;10.90;4.47;;;10.40;57.40;;;;;;5109276;27;20195;-87
2023/12/26 02:03:58;;;;;;;12.07;4.37;;;10.40;57.40;;;;;;5092578;28;20179;-88
2023/12/26 02:06:23;;;;;;;14.00;4.77;;;10.30;57.50;;;;;;5115450;27;20638;-87
2023/12/26 02:08:50;;;;;;;11.77;5.10;;;10.30;57.70;;;;;;5092783;28;20183;-86
2023/12/26 02:11:15;;;;;;;8.83;3.87;;;10.30;57.70;;;;;;5086156;28;20228;-87
2023/12/26 02:13:41;;;;;;;12.33;5.03;;;10.40;57.90;;;;;;5067246;28;20202;-87
2023/12/26 02:16:12;;;;;;;10.23;4.80;;;10.40;57.90;;;;;;5065516;28;20214;-87
2023/12/26 02:18:38;;;;;;;12.47;5.20;;;10.50;58.00;;;;;;5060520;28;20239;-87
2023/12/26 02:21:04;;;;;;;10.30;4.50;;;10.60;58.00;;;;;;5066987;28;20549;-88
2023/12/26 02:23:33;;;;;;;12.27;4.50;;;10.40;57.80;;;;;;5073303;28;20189;-86
2023/12/26 02:26:01;;;;;;;12.97;5.23;;;10.50;58.00;;;;;;5067067;28;20228;-86
2023/12/26 02:28:27;;;;;;;12.60;4.77;;;10.50;58.10;;;;;;5083807;28;20301;-89
2023/12/26 02:30:53;;;;;;;13.73;5.10;;;10.50;58.10;;;;;;5083589;28;20204;-88
2023/12/26 02:33:19;;;;;;;15.33;5.03;;;10.50;58.10;;;;;;5071863;28;20212;-87
2023/12/26 02:35:45;;;;;;;10.53;4.77;;;10.40;58.00;;;;;;5066989;28;20203;-89
2023/12/26 02:38:11;;;;;;;14.33;5.10;;;10.60;58.30;;;;;;5066071;28;20267;-87
2023/12/26 02:40:36;;;;;;;12.47;5.20;;;10.50;58.10;;;;;;5082622;28;20620;-88
2023/12/26 02:43:02;;;;;;;9.97;4.50;;;10.40;58.20;;;;;;5071223;28;20219;-87
2023/12/26 02:45:28;;;;;;;10.53;4.60;;;10.50;58.30;;;;;;5075414;28;20192;-89
2023/12/26 02:47:53;;;;;;;12.73;4.30;;;10.50;58.20;;;;;;5077169;28;20184;-85
2023/12/26 02:50:19;;;;;;;16.03;4.53;;;10.60;58.10;;;;;;5087536;28;20587;-87
2023/12/26 02:52:45;;;;;;;14.23;5.00;;;10.50;58.00;;;;;;5072263;28;20184;-87
2023/12/26 02:55:11;;;;;;;13.07;4.40;;;10.40;58.00;;;;;;5076309;28;20180;-89
2023/12/26 02:57:37;;;;;;;12.03;4.50;;;10.40;58.10;;;;;;5083741;28;20199;-88
2023/12/26 03:00:05;;;;;;;8.83;4.53;;;10.40;58.20;;;;;;5072988;28;20191;-87
2023/12/26 03:02:31;;;;;;;10.70;5.17;;;10.50;58.30;;;;;;5082859;28;20219;-89
2023/12/26 03:04:56;;;;;;;16.57;4.70;;;10.50;58.30;;;;;;5064352;28;20181;-88
2023/12/26 03:07:22;;;;;;;10.77;4.20;;;10.50;58.20;;;;;;5091485;28;20261;-88
2023/12/26 03:09:48;;;;;;;10.40;4.03;;;10.70;58.20;;;;;;5076955;28;20181;-86
2023/12/26 03:12:13;;;;;;;10.27;4.10;;;10.60;58.10;;;;;;5085600;27;20223;-89
2023/12/26 03:14:39;;;;;;;10.83;3.87;;;10.60;58.20;;;;;;5103478;27;20179;-89
2023/12/26 03:17:05;;;;;;;14.57;5.57;;;10.70;58.20;;;;;;5088467;28;20175;-89
2023/12/26 03:19:30;;;;;;;10.33;4.23;;;10.70;58.10;;;;;;5092707;28;20200;-87
2023/12/26 03:21:56;;;;;;;11.27;3.87;;;10.70;58.00;;;;;;5112755;27;20207;-87
2023/12/26 03:24:21;;;;;;;10.17;4.40;;;10.80;58.00;;;;;;5090741;27;20233;-90
2023/12/26 03:26:47;;;;;;;9.77;4.37;;;10.80;58.10;;;;;;5115324;27;20179;-87
2023/12/26 03:29:13;;;;;;;11.03;4.20;;;10.80;58.10;;;;;;5092531;28;20179;-88
2023/12/26 03:31:47;;;;;;;9.33;3.87;;;10.80;58.00;;;;;;5093017;28;20184;-86
2023/12/26 03:34:13;;;;;;;8.77;3.80;;;10.90;58.00;;;;;;5107297;28;20183;-87
2023/12/26 03:36:45;;;;;;;9.93;4.00;;;10.90;57.90;;;;;;5101696;28;20184;-87
2023/12/26 03:39:11;;;;;;;8.90;4.23;;;10.90;58.00;;;;;;5088099;27;20682;-87
2023/12/26 03:41:37;;;;;;;9.93;3.77;;;10.90;57.90;;;;;;5091857;28;20220;-89
2023/12/26 03:44:03;;;;;;;12.67;4.47;;;11.00;58.00;;;;;;5088927;28;20660;-88
2023/12/26 03:46:29;;;;;;;11.13;4.20;;;11.00;58.00;;;;;;5101873;28;20184;-88
2023/12/26 03:48:54;;;;;;;11.27;3.63;;;11.00;58.00;;;;;;5097965;28;20180;-89
2023/12/26 03:51:20;;;;;;;10.53;4.07;;;11.00;58.00;;;;;;5085924;28;20168;-89
2023/12/26 03:53:46;;;;;;;10.00;3.97;;;11.00;58.30;;;;;;5101869;28;20215;-90
2023/12/26 03:56:11;;;;;;;14.47;4.60;;;11.00;58.00;;;;;;5087306;28;20207;-86
2023/12/26 03:58:37;;;;;;;10.07;4.60;;;11.10;58.20;;;;;;5088036;28;20660;-89
2023/12/26 04:01:03;;;;;;;13.87;5.07;;;11.10;58.10;;;;;;5109407;28;20191;-86
2023/12/26 04:03:28;;;;;;;13.47;6.67;;;11.00;58.00;;;;;;5094286;28;20211;-88
2023/12/26 04:05:54;;;;;;;13.77;6.43;;;11.00;58.10;;;;;;5096401;28;20180;-88
2023/12/26 04:08:20;;;;;;;15.60;7.30;;;11.00;58.20;;;;;;5112798;28;20254;-89
2023/12/26 04:10:45;;;;;;;14.40;6.77;;;11.10;58.20;;;;;;5092808;28;20180;-88
2023/12/26 04:13:11;;;;;;;12.70;7.27;;;11.10;58.40;;;;;;5105975;28;20233;-87
2023/12/26 04:15:36;;;;;;;13.00;6.20;;;11.10;58.20;;;;;;5085652;27;20183;-87
2023/12/26 04:18:02;;;;;;;9.27;5.17;;;11.10;58.30;;;;;;5090649;28;20179;-87
2023/12/26 04:20:28;;;;;;;12.87;4.93;;;11.00;58.40;;;;;;5092488;27;20274;-86
2023/12/26 04:22:54;;;;;;;15.77;5.00;;;11.10;58.50;;;;;;5102530;27;20298;-86
2023/12/26 04:25:20;;;;;;;12.03;5.33;;;11.10;58.50;;;;;;5093842;28;20212;-88
2023/12/26 04:27:46;;;;;;;14.60;5.33;;;11.10;58.60;;;;;;5109352;28;20263;-87
2023/12/26 04:30:12;;;;;;;18.97;5.67;;;11.10;58.40;;;;;;5086814;28;20590;-89
2023/12/26 04:32:37;;;;;;;12.67;5.90;;;11.00;58.40;;;;;;5112536;28;20210;-86
2023/12/26 04:35:03;;;;;;;12.07;5.87;;;11.00;58.50;;;;;;5091836;28;20183;-86
2023/12/26 04:37:29;;;;;;;12.37;5.10;;;11.00;58.80;;;;;;5110427;27;20187;-87
2023/12/26 04:39:54;;;;;;;8.40;4.53;;;11.00;58.80;;;;;;5091009;28;20195;-88
2023/12/26 04:42:20;;;;;;;10.87;5.33;;;11.10;58.80;;;;;;5092866;28;20207;-90
2023/12/26 04:44:46;;;;;;;14.83;5.13;;;11.10;58.90;;;;;;5095473;28;20232;-89
2023/12/26 04:47:12;;;;;;;12.83;4.77;;;10.90;59.00;;;;;;5088256;28;20195;-86
2023/12/26 04:49:37;;;;;;;10.03;4.73;;;11.00;59.20;;;;;;5093204;28;20681;-86
2023/12/26 04:52:03;;;;;;;13.33;4.73;;;11.00;59.20;;;;;;5093929;28;20184;-89
2023/12/26 04:54:28;;;;;;;11.93;4.73;;;11.00;59.30;;;;;;5094919;28;20194;-87
2023/12/26 04:56:54;;;;;;;10.23;4.57;;;11.00;59.20;;;;;;5095087;28;20190;-87
2023/12/26 04:59:20;;;;;;;8.43;4.27;;;11.00;59.10;;;;;;5094847;28;20252;-89
2023/12/26 05:01:45;;;;;;;7.87;4.23;;;10.90;59.30;;;;;;5093224;28;20183;-87
2023/12/26 05:04:11;;;;;;;10.83;4.70;;;10.90;59.50;;;;;;5088793;28;20223;-89
2023/12/26 05:06:37;;;;;;;8.63;3.70;;;10.90;59.60;;;;;;5093597;28;20180;-89
2023/12/26 05:09:03;;;;;;;6.67;3.80;;;10.90;59.80;;;;;;5111108;28;20175;-88
2023/12/26 05:11:28;;;;;;;5.57;3.67;;;10.90;59.90;;;;;;5093746;28;20226;-89
2023/12/26 05:13:54;;;;;;;8.47;4.03;;;10.90;60.10;;;;;;5091294;28;20275;-88
2023/12/26 05:16:20;;;;;;;9.90;4.13;;;11.10;60.30;;;;;;5091978;28;20171;-87
2023/12/26 05:18:46;;;;;;;7.63;4.30;;;11.00;60.10;;;;;;5104079;28;20177;-89
2023/12/26 05:21:22;;;;;;;8.97;3.87;;;11.00;60.40;;;;;;5099781;28;20183;-85
2023/12/26 05:23:48;;;;;;;6.07;3.50;;;11.00;60.50;;;;;;5081473;28;20216;-88
2023/12/26 05:26:17;;;;;;;6.23;3.43;;;11.00;60.50;;;;;;5111160;27;20222;-89
2023/12/26 05:28:43;;;;;;;5.70;3.73;;;11.00;60.70;;;;;;5095410;28;20190;-84
2023/12/26 05:31:08;;;;;;;5.67;3.87;;;11.00;60.90;;;;;;5107288;28;20183;-86
2023/12/26 05:33:34;;;;;;;8.67;4.10;;;11.00;61.20;;;;;;5087441;28;20634;-87
2023/12/26 05:36:00;;;;;;;6.87;4.03;;;11.10;61.30;;;;;;5093144;28;20183;-88
2023/12/26 05:38:26;;;;;;;8.87;4.10;;;11.00;62.20;;;;;;5086042;28;20179;-87
2023/12/26 05:40:52;;;;;;;6.97;3.70;;;11.10;61.50;;;;;;5085844;28;20196;-85
2023/12/26 05:43:18;;;;;;;6.27;3.80;;;11.20;62.60;;;;;;5092913;28;20728;-86
2023/12/26 05:45:44;;;;;;;7.03;4.10;;;11.20;61.80;;;;;;5099764;28;20188;-87
2023/12/26 05:48:09;;;;;;;8.20;4.03;;;11.20;61.70;;;;;;5102613;28;20259;-87
2023/12/26 05:50:35;;;;;;;5.30;3.80;;;11.20;62.40;;;;;;5087209;28;20187;-86
2023/12/26 05:53:02;;;;;;;4.80;3.63;;;11.20;61.80;;;;;;5106924;27;20187;-87
2023/12/26 05:55:27;;;;;;;8.23;4.17;;;11.40;62.10;;;;;;5088768;28;20531;-87
2023/12/26 05:57:53;;;;;;;6.27;3.60;;;11.30;62.00;;;;;;5102158;28;20195;-87
2023/12/26 06:00:19;;;;;;;5.20;3.53;;;11.30;62.00;;;;;;5094456;28;20171;-86
2023/12/26 06:02:44;;;;;;;5.53;3.47;;;11.30;62.00;;;;;;5092570;28;20252;-87
2023/12/26 06:05:10;;;;;;;5.00;3.57;;;11.40;62.40;;;;;;5087509;27;20237;-85
2023/12/26 06:07:36;;;;;;;5.20;3.30;;;11.40;62.50;;;;;;5083650;28;20191;-86
2023/12/26 06:10:11;;;;;;;6.57;3.80;;;11.40;62.50;;;;;;5083137;28;20186;-87
2023/12/26 06:12:36;;;;;;;5.97;3.63;;;11.40;62.60;;;;;;5104461;27;20234;-87
2023/12/26 06:15:02;;;;;;;8.27;3.90;;;11.40;62.60;;;;;;5093015;28;20182;-88
2023/12/26 06:17:29;;;;;;;3.83;3.23;;;11.40;62.70;;;;;;5093244;28;20196;-87
2023/12/26 06:19:55;;;;;;;5.30;3.50;;;11.50;62.90;;;;;;5093632;28;20190;-88
2023/12/26 06:22:20;;;;;;;6.07;3.47;;;11.50;63.10;;;;;;5084873;28;20203;-87
2023/12/26 06:24:46;;;;;;;3.20;2.90;;;11.50;63.20;;;;;;5083666;28;20195;-88
2023/12/26 06:27:11;;;;;;;3.57;3.27;;;11.50;63.30;;;;;;5094910;27;20175;-89
2023/12/26 06:29:37;;;;;;;4.30;3.03;;;11.60;63.50;;;;;;5093351;28;20230;-88
2023/12/26 06:32:03;;;;;;;3.13;2.80;;;11.60;63.40;;;;;;5085661;28;20553;-88
2023/12/26 06:34:28;;;;;;;5.63;3.47;;;11.60;63.60;;;;;;5093685;28;20274;-89
2023/12/26 06:36:54;;;;;;;4.80;2.90;;;11.60;63.80;;;;;;5087006;28;20180;-89
2023/12/26 06:39:19;;;;;;;3.57;2.97;;;11.60;63.90;;;;;;5090023;28;20191;-86
2023/12/26 06:41:45;;;;;;;3.97;2.83;;;11.60;64.10;;;;;;5109917;28;20190;-87
2023/12/26 06:44:10;;;;;;;4.40;3.10;;;11.60;64.10;;;;;;5092155;28;20975;-88
2023/12/26 06:46:43;;;;;;;4.23;3.27;;;11.70;64.30;;;;;;5096720;28;20184;-86
2023/12/26 06:49:09;;;;;;;3.87;3.10;;;11.60;64.40;;;;;;5085642;28;20184;-87
2023/12/26 06:51:41;;;;;;;4.37;2.80;;;11.70;64.70;;;;;;5090044;28;20264;-88
2023/12/26 06:54:06;;;;;;;5.30;3.17;;;11.70;64.90;;;;;;5086228;28;20188;-86
2023/12/26 06:56:33;;;;;;;3.17;2.87;;;11.70;64.80;;;;;;5092842;28;20208;-86
2023/12/26 06:58:58;;;;;;;3.33;3.03;;;11.80;64.90;;;;;;5087983;28;20190;-88
2023/12/26 07:01:26;;;;;;;2.80;2.60;;;11.80;64.90;;;;;;5093775;28;20248;-88
2023/12/26 07:03:52;;;;;;;5.03;3.23;;;11.80;64.80;;;;;;5089161;28;20203;-89
2023/12/26 07:06:18;;;;;;;3.50;3.20;;;11.90;64.90;;;;;;5111612;28;20225;-87
2023/12/26 07:08:43;;;;;;;4.10;3.10;;;11.90;64.80;;;;;;5091881;28;20187;-90
2023/12/26 07:11:09;;;;;;;4.37;3.67;;;11.90;64.90;;;;;;5089213;28;20232;-88
2023/12/26 07:13:35;;;;;;;4.20;3.80;;;11.90;65.00;;;;;;5084916;28;20196;-85
2023/12/26 07:16:00;;;;;;;3.57;3.00;;;11.90;65.30;;;;;;5080901;28;20181;-86
2023/12/26 07:18:26;;;;;;;3.73;3.23;;;11.90;65.40;;;;;;5086525;28;20214;-85
2023/12/26 07:20:51;;;;;;;7.40;4.00;;;12.00;65.50;;;;;;5089480;28;20563;-87
2023/12/26 07:23:17;;;;;;;4.07;3.10;;;12.10;65.50;;;;;;5090276;28;20208;-85
2023/12/26 07:25:43;;;;;;;3.00;2.80;;;12.10;65.60;;;;;;5100937;28;20188;-86
2023/12/26 07:28:10;;;;;;;5.73;3.10;;;12.00;65.30;;;;;;5087786;28;20538;-86
2023/12/26 07:30:38;;;;;;;4.60;3.20;;;12.00;65.40;;;;;;5090338;28;20258;-87
2023/12/26 07:33:04;;;;;;;3.37;3.00;;;12.00;65.40;;;;;;5112770;27;20312;-87
2023/12/26 07:35:30;;;;;;;2.90;2.67;;;12.10;65.50;;;;;;5091471;28;20271;-87
2023/12/26 07:37:56;;;;;;;4.37;3.97;;;12.10;65.50;;;;;;5096227;28;20199;-86
2023/12/26 07:40:22;;;;;;;3.13;2.90;;;12.10;65.50;;;;;;5095741;28;20664;-86
2023/12/26 07:42:47;;;;;;;3.50;3.20;;;12.20;65.60;;;;;;5086370;28;20339;-86
2023/12/26 07:45:13;;;;;;;3.13;2.77;;;12.10;65.60;;;;;;5090671;28;20313;-87
2023/12/26 07:47:39;;;;;;;4.80;3.77;;;12.10;65.80;;;;;;5087197;28;20189;-88
2023/12/26 07:50:04;;;;;;;3.70;3.40;;;12.10;66.10;;;;;;5084328;28;20188;-87
2023/12/26 07:52:30;;;;;;;4.07;3.17;;;12.10;66.20;;;;;;5090153;28;20657;-85
2023/12/26 07:54:56;;;;;;;2.83;2.63;;;12.10;66.40;;;;;;5088245;28;20548;-87
2023/12/26 07:57:21;;;;;;;3.00;2.70;;;12.10;66.50;;;;;;5101971;27;20270;-86
2023/12/26 07:59:47;;;;;;;3.50;2.97;;;12.10;66.60;;;;;;5089455;28;20188;-85
2023/12/26 08:02:12;;;;;;;2.47;2.27;;;12.10;66.80;;;;;;5103455;28;20204;-88
2023/12/26 08:04:38;;;;;;;2.63;2.43;;;12.10;67.00;;;;;;5095781;28;20184;-87
2023/12/26 08:07:05;;;;;;;2.80;2.50;;;12.10;67.20;;;;;;5096848;27;20180;-86
2023/12/26 08:09:31;;;;;;;2.87;2.40;;;12.20;67.80;;;;;;5080484;28;20405;-86
2023/12/26 08:11:57;;;;;;;3.33;2.40;;;12.20;68.00;;;;;;5092963;28;20226;-86
2023/12/26 08:14:22;;;;;;;5.03;2.50;;;12.20;68.10;;;;;;5092248;28;20175;-87
2023/12/26 08:16:48;;;;;;;3.80;2.23;;;12.20;68.30;;;;;;5093459;28;20184;-86
2023/12/26 08:19:13;;;;;;;2.87;2.57;;;12.20;68.80;;;;;;5092931;28;20634;-86
2023/12/26 08:21:39;;;;;;;2.57;2.37;;;12.20;69.00;;;;;;5094581;28;20207;-86
2023/12/26 08:24:07;;;;;;;2.93;2.50;;;12.30;69.30;;;;;;5092845;28;20210;-86
2023/12/26 08:26:32;;;;;;;2.63;2.20;;;12.30;69.60;;;;;;5087550;28;20188;-87
2023/12/26 08:28:58;;;;;;;2.30;2.10;;;12.30;69.70;;;;;;5095442;28;20702;-86
2023/12/26 08:31:24;;;;;;;2.10;2.00;;;12.30;70.00;;;;;;5110456;28;20237;-86
2023/12/26 08:33:50;;;;;;;2.83;2.10;;;12.30;70.30;;;;;;5105870;28;20179;-86
2023/12/26 08:36:16;;;;;;;2.50;2.17;;;12.30;70.60;;;;;;5089510;28;20190;-87
2023/12/26 08:38:42;;;;;;;1.93;1.70;;;12.30;71.00;;;;;;5087271;28;20183;-86
2023/12/26 08:41:10;;;;;;;2.00;1.80;;;12.30;71.20;;;;;;5084752;28;20207;-86
2023/12/26 08:43:35;;;;;;;1.97;1.77;;;12.40;71.50;;;;;;5108492;28;20211;-86
2023/12/26 08:46:01;;;;;;;3.27;2.23;;;12.40;71.70;;;;;;5084619;28;20179;-87
2023/12/26 08:48:27;;;;;;;3.00;2.20;;;12.40;71.80;;;;;;5093137;28;20564;-86
2023/12/26 08:50:52;;;;;;;3.33;2.60;;;12.50;72.10;;;;;;5092817;28;20667;-87
2023/12/26 08:53:19;;;;;;;3.60;2.40;;;12.50;72.00;;;;;;5086777;28;20206;-87
2023/12/26 08:55:46;;;;;;;2.80;2.50;;;12.50;72.10;;;;;;5090004;28;20229;-87
2023/12/26 08:58:12;;;;;;;2.97;2.53;;;12.50;72.30;;;;;;5090617;28;20212;-87
2023/12/26 09:00:38;;;;;;;3.33;2.30;;;12.50;72.40;;;;;;5089925;28;20184;-86
2023/12/26 09:03:04;;;;;;;2.27;2.07;;;12.50;72.70;;;;;;5089099;28;20596;-87
2023/12/26 09:05:29;;;;;;;2.93;2.00;;;12.60;72.90;;;;;;5093908;28;20186;-87
2023/12/26 09:07:55;;;;;;;2.57;2.07;;;12.60;73.50;;;;;;5085600;28;20188;-86
2023/12/26 09:10:21;;;;;;;2.57;2.20;;;12.60;73.50;;;;;;5078465;28;20179;-86
2023/12/26 09:12:46;;;;;;;2.20;1.90;;;12.60;72.90;;;;;;5104853;28;20949;-86
2023/12/26 09:15:12;;;;;;;2.60;2.40;;;12.70;73.10;;;;;;5091713;28;20201;-86
2023/12/26 09:17:38;;;;;;;2.90;2.27;;;12.70;73.30;;;;;;5109259;28;20223;-86
2023/12/26 09:20:05;;;;;;;3.30;2.57;;;12.70;73.40;;;;;;5085371;28;20200;-86
2023/12/26 09:22:30;;;;;;;2.73;2.40;;;12.70;73.50;;;;;;5091355;28;20264;-87
2023/12/26 09:24:56;;;;;;;2.97;2.67;;;12.70;73.60;;;;;;5088478;28;20185;-86
2023/12/26 09:27:21;;;;;;;3.43;2.50;;;12.70;73.70;;;;;;5087502;28;20195;-88
2023/12/26 09:29:47;;;;;;;3.43;2.60;;;12.70;74.00;;;;;;5094730;28;20617;-86
2023/12/26 09:32:12;;;;;;;2.60;2.40;;;12.70;74.00;;;;;;5090216;28;20180;-87
2023/12/26 09:34:38;;;;;;;3.20;2.50;;;12.70;74.20;;;;;;5089856;28;20176;-86
2023/12/26 09:37:04;;;;;;;3.90;2.40;;;12.70;74.10;;;;;;5097064;27;20196;-88
2023/12/26 09:39:30;;;;;;;2.30;2.10;;;12.70;74.30;;;;;;5083953;28;20607;-87
2023/12/26 09:41:56;;;;;;;1.97;1.80;;;12.80;74.50;;;;;;5093771;28;20198;-88
2023/12/26 09:44:22;;;;;;;2.03;1.83;;;12.80;74.60;;;;;;5091084;28;20226;-87
2023/12/26 09:46:48;;;;;;;2.27;2.03;;;12.80;74.60;;;;;;5092329;28;20211;-87
2023/12/26 09:49:15;;;;;;;2.27;1.80;;;12.80;74.60;;;;;;5090262;28;20189;-88
2023/12/26 09:51:44;;;;;;;3.10;2.27;;;12.80;74.60;;;;;;5083598;28;20633;-86
2023/12/26 09:54:11;;;;;;;2.43;2.00;;;12.80;74.70;;;;;;5092513;28;20228;-87
2023/12/26 09:56:40;;;;;;;2.90;1.90;;;12.80;74.70;;;;;;5087990;28;20477;-88
2023/12/26 09:59:07;;;;;;;2.20;2.00;;;12.80;74.90;;;;;;5090104;28;20190;-88
2023/12/26 10:01:33;;;;;;;2.50;2.30;;;12.80;74.90;;;;;;5090765;28;20183;-89
2023/12/26 10:03:59;;;;;;;2.27;2.07;;;12.90;75.00;;;;;;5088323;28;20214;-89
2023/12/26 10:06:25;;;;;;;3.00;2.20;;;12.90;75.00;;;;;;5085746;28;20202;-89
2023/12/26 10:08:54;;;;;;;2.50;2.30;;;12.90;75.00;;;;;;5084509;28;20179;-89
2023/12/26 10:11:21;;;;;;;2.30;2.10;;;12.90;75.00;;;;;;5103750;28;20216;-87
2023/12/26 10:13:52;;;;;;;2.57;2.10;;;13.00;75.20;;;;;;5078532;28;20358;-87
2023/12/26 10:16:19;;;;;;;2.40;2.10;;;12.90;75.00;;;;;;5084253;28;20180;-89
2023/12/26 10:18:45;;;;;;;2.40;2.17;;;12.80;75.10;;;;;;5086167;28;20194;-88
2023/12/26 10:21:11;;;;;;;2.80;2.37;;;12.90;75.30;;;;;;5091066;28;20258;-88
2023/12/26 10:23:37;;;;;;;2.67;2.40;;;12.90;75.30;;;;;;5106704;28;20211;-88
2023/12/26 10:26:03;;;;;;;2.13;2.00;;;12.90;75.30;;;;;;5089109;28;20187;-85
2023/12/26 10:28:32;;;;;;;3.73;2.20;;;12.90;75.50;;;;;;5090527;28;20225;-87
2023/12/26 10:31:08;;;;;;;2.90;2.50;;;12.90;75.80;;;;;;5087500;28;20184;-89
2023/12/26 10:33:34;;;;;;;2.80;2.60;;;12.80;76.00;;;;;;5085942;28;20641;-86
2023/12/26 10:36:07;;;;;;;2.67;2.47;;;12.80;76.00;;;;;;5089753;28;20254;-87
2023/12/26 10:38:33;;;;;;;2.90;2.40;;;12.80;76.30;;;;;;5079234;28;20577;-86
2023/12/26 10:41:06;;;;;;;2.40;2.20;;;12.80;76.20;;;;;;5103507;28;20180;-86
2023/12/26 10:43:33;;;;;;;2.73;2.40;;;12.80;76.00;;;;;;5089481;28;20270;-87
2023/12/26 10:45:59;;;;;;;2.73;2.40;;;12.90;76.10;;;;;;5088337;28;20176;-87
2023/12/26 10:48:31;;;;;;;2.67;2.30;;;12.90;75.90;;;;;;5105428;28;20196;-87
2023/12/26 10:51:00;;;;;;;2.83;2.30;;;13.00;75.80;;;;;;5100035;28;20188;-88
2023/12/26 10:53:42;;;;;;;2.10;1.90;;;12.80;75.50;;;;;;5086427;28;20189;-87
2023/12/26 10:56:10;;;;;;;3.27;2.27;;;12.90;75.50;;;;;;5104478;28;20191;-87
2023/12/26 10:58:36;;;;;;;3.43;2.57;;;12.90;75.40;;;;;;5080344;28;20185;-87
2023/12/26 11:01:02;;;;;;;2.40;2.00;;;12.90;75.40;;;;;;5089083;28;20188;-87
2023/12/26 11:03:28;;;;;;;2.57;2.20;;;12.90;75.10;;;;;;5083153;28;20207;-86
2023/12/26 11:05:54;;;;;;;2.80;2.07;;;12.90;75.00;;;;;;5100253;28;20193;-87
2023/12/26 11:08:19;;;;;;;3.20;2.00;;;12.80;75.00;;;;;;5094422;28;20242;-87
2023/12/26 11:10:45;;;;;;;2.47;2.20;;;12.90;75.30;;;;;;5051448;28;1083242;-86
2023/12/26 11:13:11;;;;;;;2.50;2.20;;;12.90;75.20;;;;;;5089424;28;20176;-88
2023/12/26 11:15:37;;;;;;;2.90;2.60;;;12.90;75.10;;;;;;5093121;28;20187;-88
2023/12/26 11:18:03;;;;;;;2.83;2.53;;;12.90;75.10;;;;;;5092657;28;20280;-88
2023/12/26 11:20:31;;;;;;;3.17;2.57;;;12.90;75.00;;;;;;5112899;28;20258;-87
2023/12/26 11:22:58;;;;;;;3.00;2.30;;;12.90;75.00;;;;;;5094357;28;20357;-87
2023/12/26 11:25:23;;;;;;;3.47;2.53;;;12.90;74.80;;;;;;5092409;28;20770;-89
2023/12/26 11:27:49;;;;;;;2.67;2.40;;;12.90;74.70;;;;;;5092194;28;20180;-85
2023/12/26 11:30:15;;;;;;;3.07;2.70;;;13.00;74.90;;;;;;5089834;28;20188;-90
2023/12/26 11:32:41;;;;;;;3.93;2.67;;;12.90;74.80;;;;;;5095798;28;20183;-87
2023/12/26 11:35:06;;;;;;;3.23;2.73;;;12.90;74.80;;;;;;5094427;28;20596;-88
2023/12/26 11:37:32;;;;;;;3.60;2.33;;;12.90;74.70;;;;;;5093110;28;20223;-88
2023/12/26 11:39:58;;;;;;;3.10;1.80;;;12.90;74.60;;;;;;5092801;28;20176;-86
2023/12/26 11:42:24;;;;;;;2.83;2.27;;;12.90;74.40;;;;;;5088183;28;20302;-86
2023/12/26 11:44:50;;;;;;;1.87;1.60;;;12.80;73.90;;;;;;5083536;28;20705;-86
2023/12/26 11:47:15;;;;;;;2.97;1.73;;;12.80;74.00;;;;;;5083497;28;20660;-89
2023/12/26 11:49:41;;;;;;;3.13;2.07;;;12.70;73.60;;;;;;5092326;28;20178;-88
2023/12/26 11:52:07;;;;;;;2.30;2.00;;;12.90;73.80;;;;;;5103526;28;20187;-86
2023/12/26 11:54:32;;;;;;;2.03;1.70;;;12.80;73.80;;;;;;5088304;28;20218;-87
2023/12/26 11:56:58;;;;;;;2.70;2.10;;;12.80;73.60;;;;;;5086576;28;20185;-87
2023/12/26 11:59:23;;;;;;;3.47;2.00;;;12.80;73.30;;;;;;5091950;28;20544;-88
2023/12/26 12:01:49;;;;;;;2.43;2.23;;;12.80;73.20;;;;;;5092481;28;20188;-87
2023/12/26 12:04:15;;;;;;;2.40;1.83;;;12.80;73.10;;;;;;5092227;28;20172;-87
2023/12/26 12:07:18;;;;;;;2.83;2.27;;;12.80;73.10;;;;;;5087748;28;20241;-88
2023/12/26 12:09:44;;;;;;;3.20;2.40;;;12.80;72.70;;;;;;5087479;28;20185;-87
2023/12/26 12:12:15;;;;;;;2.47;2.03;;;12.80;72.40;;;;;;5099821;28;20243;-87
2023/12/26 12:14:53;;;;;;;4.20;2.20;;;12.80;72.20;;;;;;5089406;28;20188;-87
2023/12/26 12:17:19;;;;;;;2.20;1.97;;;12.70;72.00;;;;;;5087654;28;20189;-86
2023/12/26 12:19:46;;;;;;;2.90;2.40;;;12.70;71.70;;;;;;5092348;28;20177;-88
2023/12/26 12:22:23;;;;;;;2.30;2.10;;;12.70;71.70;;;;;;5082924;28;20215;-86
2023/12/26 12:24:49;;;;;;;3.27;2.30;;;12.70;71.60;;;;;;5092415;28;20192;-87
2023/12/26 12:27:14;;;;;;;2.37;1.90;;;12.70;71.20;;;;;;5095718;28;20184;-86
2023/12/26 12:29:59;;;;;;;2.30;2.10;;;12.70;71.10;;;;;;5109703;28;20273;-87
2023/12/26 12:32:32;;;;;;;2.77;1.97;;;12.70;71.10;;;;;;5083507;28;20199;-85
2023/12/26 12:35:14;;;;;;;3.10;2.50;;;12.70;71.00;;;;;;5085710;28;20199;-87
2023/12/26 12:37:40;;;;;;;2.90;2.23;;;12.70;71.10;;;;;;5090914;28;20203;-86
2023/12/26 12:40:06;;;;;;;3.70;2.43;;;12.70;70.80;;;;;;5087955;28;20198;-85